Siroko — UFKA — position and weather

sailwx.info

Track history (hours):
 
Tides and Currents Weather Stations Pressure Air Temp Water Temp Dewpoint Dewpoint Depression Visibility Wind Speed Wind Dir Waves Ship Positions

Siroko

Last reported at 2018-Feb-06 19:46 UTC. Time now 2018-Feb-20 05:40 UTC.
Position N 45°07' E 036°35'.
Warning: this ship's position is 13 days out of date.

Length 33 m; draft 3.4 m.

Type: Tug. MMSI: 273442990.

Date/timePositionNaut miles runAvg speedWind from/ knotsBaromVisibWave heightAir tempDewpointWater temp
2018-Feb-06 19:46N 45°07' E 036°35'0 0.0
2018-Feb-06 19:30N 45°07' E 036°35'3 1.7
2018-Feb-06 17:45N 45°10' E 036°33'2 0.7
2018-Feb-06 15:29N 45°09' E 036°35'0 0.0
2018-Feb-06 14:55N 45°09' E 036°35'0 0.0
2018-Feb-06 13:13N 45°09' E 036°35'0 0.0
2018-Feb-06 09:36N 45°09' E 036°35'0 0.0
2018-Feb-06 09:30N 45°09' E 036°35'0 0.0
2018-Feb-06 08:59N 45°09' E 036°35'0 0.0
2018-Feb-06 08:30N 45°09' E 036°35'0 0.0
2018-Feb-06 07:58N 45°09' E 036°35'0 0.0
2018-Feb-06 07:30N 45°09' E 036°35'0 0.0
2018-Feb-06 06:59N 45°09' E 036°35'0 0.0
2018-Feb-06 06:27N 45°09' E 036°35'0 0.0
2018-Feb-06 05:51N 45°09' E 036°35'0 0.0
2018-Feb-06 05:29N 45°09' E 036°35'0 0.0
2018-Feb-06 01:29N 45°09' E 036°35'0 0.0
2018-Feb-05 10:20N 45°09' E 036°35'3 9.1
2018-Feb-05 10:00N 45°10' E 036°31'5 0.3
2018-Feb-04 17:46N 45°13' E 036°25'0 0.0
2018-Feb-04 15:30N 45°13' E 036°25'0 0.0
2018-Feb-04 15:01N 45°13' E 036°25'0 0.0
2018-Feb-04 14:28N 45°13' E 036°25'0 0.0
2018-Feb-04 13:51N 45°13' E 036°25'0 0.0
2018-Feb-04 13:26N 45°13' E 036°25'0 0.0
2018-Feb-04 12:59N 45°13' E 036°25'0 0.0
2018-Feb-04 12:30N 45°13' E 036°25'0 0.0
2018-Feb-04 11:59N 45°13' E 036°25'0 0.0
2018-Feb-04 11:30N 45°13' E 036°25'0 0.0
2018-Feb-04 10:00N 45°13' E 036°25'0 0.0
2018-Feb-04 09:00N 45°13' E 036°25'0 0.0
2018-Feb-04 08:30N 45°13' E 036°25'0 0.0
2018-Feb-04 07:59N 45°13' E 036°25'0 0.0
2018-Feb-04 07:30N 45°13' E 036°25'0 0.0
2018-Feb-04 07:00N 45°13' E 036°25'0 0.0
2018-Feb-04 06:27N 45°13' E 036°25'0 0.0
2018-Feb-04 06:00N 45°13' E 036°25'0 0.0
2018-Feb-04 05:31N 45°13' E 036°25'0 0.0
2018-Feb-04 04:56N 45°13' E 036°25'0 0.0
2018-Feb-04 04:31N 45°13' E 036°25'0 0.0
2018-Feb-04 04:00N 45°13' E 036°25'0 0.0
2018-Feb-04 03:28N 45°13' E 036°25'0 0.0
2018-Feb-04 02:58N 45°13' E 036°25'0 0.0
2018-Feb-04 02:18N 45°13' E 036°25'0 0.0
2018-Feb-04 01:57N 45°13' E 036°25'0 0.0
2018-Feb-04 01:27N 45°13' E 036°25'0 0.0
2018-Feb-04 00:55N 45°13' E 036°25'0 0.0
2018-Feb-04 00:30N 45°13' E 036°25'0 0.0
2018-Feb-03 23:26N 45°13' E 036°25'0 0.0
2018-Feb-03 22:58N 45°13' E 036°25'0 0.0
2018-Feb-03 22:30N 45°13' E 036°25'0 0.0
2018-Feb-03 21:51N 45°13' E 036°25'0 0.0
2018-Feb-03 21:29N 45°13' E 036°25'0 0.0
2018-Feb-03 20:50N 45°13' E 036°25'0 0.0
2018-Feb-03 18:24N 45°13' E 036°25'0 0.0
2018-Feb-03 18:00N 45°13' E 036°25'0 0.0
2018-Feb-03 17:22N 45°13' E 036°25'0 0.0
2018-Feb-03 16:30N 45°13' E 036°25'0 0.0
2018-Feb-03 16:00N 45°13' E 036°25'0 0.0
2018-Feb-03 14:41N 45°13' E 036°25'0 0.0
2018-Feb-03 14:27N 45°13' E 036°25'0 0.0
2018-Feb-03 13:59N 45°13' E 036°25'0 0.0
2018-Feb-03 13:27N 45°13' E 036°25'0 0.0
2018-Feb-03 13:00N 45°13' E 036°25'0 0.0
2018-Feb-03 12:21N 45°13' E 036°25'0 0.0
2018-Feb-03 12:00N 45°13' E 036°25'0 0.0
2018-Feb-03 11:31N 45°13' E 036°25'0 0.0
2018-Feb-03 10:58N 45°13' E 036°25'0 0.0
2018-Feb-03 10:29N 45°13' E 036°25'0 0.0
2018-Feb-03 09:58N 45°13' E 036°25'0 0.0
2018-Feb-03 09:30N 45°13' E 036°25'0 0.0
2018-Feb-03 09:00N 45°13' E 036°25'0 0.0
2018-Feb-03 08:27N 45°13' E 036°25'0 0.0
2018-Feb-03 07:58N 45°13' E 036°25'0 0.0
2018-Feb-03 06:06N 45°13' E 036°25'0 0.0
2018-Feb-03 05:57N 45°13' E 036°25'0 0.0
2018-Feb-03 05:25N 45°13' E 036°25'0 0.0
2018-Feb-03 04:59N 45°13' E 036°25'0 0.0
2018-Feb-03 01:22N 45°13' E 036°25'0 0.0
2018-Feb-03 00:58N 45°13' E 036°25'0 0.0
2018-Feb-03 00:30N 45°13' E 036°25'0 0.0
2018-Feb-02 23:58N 45°13' E 036°25'0 0.0
2018-Feb-02 23:25N 45°13' E 036°25'0 0.0
2018-Feb-02 23:00N 45°13' E 036°25'0 0.0
2018-Feb-02 21:11N 45°13' E 036°25'0 0.0
2018-Feb-02 20:51N 45°13' E 036°25'0 0.0
2018-Feb-02 20:15N 45°13' E 036°25'0 0.0
2018-Feb-02 19:57N 45°13' E 036°25'0 0.0
2018-Feb-02 18:05N 45°13' E 036°25'0 0.0
2018-Feb-02 17:59N 45°13' E 036°25'0 0.0
2018-Feb-02 17:27N 45°13' E 036°25'0 0.0
2018-Feb-02 17:00N 45°13' E 036°25'0 0.0
2018-Feb-02 15:30N 45°13' E 036°25'0 0.0
2018-Feb-02 14:22N 45°13' E 036°25'0 0.0
2018-Feb-02 13:26N 45°13' E 036°25'0 0.3
2018-Feb-02 13:00N 45°13' E 036°25'0 0.2
2018-Feb-02 12:27N 45°13' E 036°25'0 0.0
2018-Feb-02 11:59N 45°13' E 036°25'0 0.0
2018-Feb-02 11:31N 45°13' E 036°25'0 0.0
2018-Feb-02 10:58N 45°13' E 036°25'0 0.0
2018-Feb-02 10:28N 45°13' E 036°25'0 0.0
2018-Feb-02 09:59N 45°13' E 036°25'0 0.0
2018-Feb-02 09:28N 45°13' E 036°25'0 0.0
2018-Feb-02 08:59N 45°13' E 036°25'0 0.3
2018-Feb-02 08:18N 45°13' E 036°26'0 0.9
2018-Feb-02 08:00N 45°13' E 036°25'0 0.0
2018-Feb-02 07:29N 45°13' E 036°25'0 0.0
2018-Feb-02 06:59N 45°13' E 036°25'0 0.0
2018-Feb-02 06:30N 45°13' E 036°25'0 0.0
2018-Feb-02 06:00N 45°13' E 036°25'0 0.0
2018-Feb-02 05:30N 45°13' E 036°25'0 0.0
2018-Feb-02 04:59N 45°13' E 036°25'0 0.0
2018-Feb-02 04:30N 45°13' E 036°25'0 0.0
2018-Feb-02 04:00N 45°13' E 036°25'0 0.0
2018-Feb-02 03:30N 45°13' E 036°25'0 0.0
2018-Feb-02 03:00N 45°13' E 036°25'0 0.0
2018-Feb-02 02:30N 45°13' E 036°25'0 0.0
2018-Feb-02 02:00N 45°13' E 036°25'0 0.0
2018-Feb-02 01:25N 45°13' E 036°25'0 0.0
2018-Feb-02 00:56N 45°13' E 036°25'0 0.0
2018-Feb-02 00:29N 45°13' E 036°25'0 0.0
2018-Feb-02 00:00N 45°13' E 036°25'0 0.0
2018-Feb-01 23:28N 45°13' E 036°25'0 0.0
2018-Feb-01 21:58N 45°13' E 036°25'0 0.0
2018-Feb-01 21:24N 45°13' E 036°25'6 1.0
2018-Feb-01 15:32N 45°11' E 036°33'0 0.2
2018-Feb-01 15:30N 45°11' E 036°33'0 0.0
2018-Feb-01 15:00N 45°11' E 036°33'0 0.0
2018-Feb-01 13:24N 45°11' E 036°33'0 0.2
2018-Feb-01 12:59N 45°10' E 036°33'5 9.8
2018-Feb-01 12:30N 45°12' E 036°27'1 2.6
2018-Feb-01 11:56N 45°13' E 036°25'0 0.0
2018-Feb-01 10:53N 45°13' E 036°25'0 0.0
2018-Feb-01 10:30N 45°13' E 036°25'0 0.0
2018-Feb-01 10:00N 45°13' E 036°25'0 0.0
2018-Feb-01 09:29N 45°13' E 036°25'0 0.0
2018-Feb-01 09:00N 45°13' E 036°25'0 0.0
2018-Feb-01 08:26N 45°13' E 036°25'0 0.0
2018-Feb-01 07:26N 45°13' E 036°25'0 0.0
2018-Feb-01 07:00N 45°13' E 036°25'0 0.0
2018-Jan-31 07:28N 45°13' E 036°25'0 0.0
2018-Jan-31 06:55N 45°13' E 036°25'0 0.0
2018-Jan-31 06:25N 45°13' E 036°25'0 0.0
2018-Jan-31 06:00N 45°13' E 036°25'0 0.0
2018-Jan-31 05:30N 45°13' E 036°25'0 0.0
2018-Jan-31 02:09N 45°13' E 036°25'0 0.0
2018-Jan-30 23:54N 45°13' E 036°25'0 0.0
2018-Jan-30 16:44N 45°13' E 036°25'0 0.0
2018-Jan-30 16:28N 45°13' E 036°25'0 0.0
2018-Jan-30 15:59N 45°13' E 036°25'0 0.0
2018-Jan-30 15:23N 45°13' E 036°25'0 0.0
2018-Jan-30 14:57N 45°13' E 036°25'0 0.0
2018-Jan-30 14:23N 45°13' E 036°25'0 0.0
2018-Jan-30 13:23N 45°13' E 036°25'0 0.0
2018-Jan-30 12:52N 45°13' E 036°25'0 0.0
2018-Jan-30 12:29N 45°13' E 036°25'0 0.0
2018-Jan-30 12:00N 45°13' E 036°25'0 0.0
2018-Jan-30 11:28N 45°13' E 036°25'0 0.0
2018-Jan-30 10:30N 45°13' E 036°25'0 0.0
2018-Jan-30 09:30N 45°13' E 036°25'0 0.0
2018-Jan-30 08:46N 45°13' E 036°25'0 0.0
2018-Jan-30 08:27N 45°13' E 036°25'0 0.0
2018-Jan-30 07:57N 45°13' E 036°25'0 0.0
2018-Jan-30 07:30N 45°13' E 036°25'9 0.3
2018-Jan-28 21:53N 45°08' E 036°35'0 0.0
2018-Jan-28 14:52N 45°08' E 036°35'0 0.0
2018-Jan-28 14:30N 45°08' E 036°35'0 0.0
2018-Jan-28 13:54N 45°08' E 036°35'0 0.0
2018-Jan-28 13:27N 45°08' E 036°35'0 0.0
2018-Jan-28 06:20N 45°08' E 036°35'0 0.0
2018-Jan-28 05:51N 45°08' E 036°35'0 0.0
2018-Jan-28 02:24N 45°08' E 036°35'2 0.5
2018-Jan-27 22:46N 45°10' E 036°34'0 0.0
2018-Jan-27 22:24N 45°10' E 036°34'  
Track history (hours):
 
Tides and Currents Weather Stations Pressure Air Temp Water Temp Dewpoint Dewpoint Depression Visibility Wind Speed Wind Dir Waves Ship Positions

Siroko

Last reported at 2018-Feb-06 19:46 UTC. Time now 2018-Feb-20 05:40 UTC.
Position N 45°07' E 036°35'.
Warning: this ship's position is 13 days out of date.

Length 33 m; draft 3.4 m.

Type: Tug. MMSI: 273442990.

Date/timePositionNaut miles runAvg speedWind from/ knotsBaromVisibWave heightAir tempDewpointWater temp
2018-Feb-06 19:46N 45°07' E 036°35'0 0.0
2018-Feb-06 19:30N 45°07' E 036°35'3 1.7
2018-Feb-06 17:45N 45°10' E 036°33'2 0.7
2018-Feb-06 15:29N 45°09' E 036°35'0 0.0
2018-Feb-06 14:55N 45°09' E 036°35'0 0.0
2018-Feb-06 13:13N 45°09' E 036°35'0 0.0
2018-Feb-06 09:36N 45°09' E 036°35'0 0.0
2018-Feb-06 09:30N 45°09' E 036°35'0 0.0
2018-Feb-06 08:59N 45°09' E 036°35'0 0.0
2018-Feb-06 08:30N 45°09' E 036°35'0 0.0
2018-Feb-06 07:58N 45°09' E 036°35'0 0.0
2018-Feb-06 07:30N 45°09' E 036°35'0 0.0
2018-Feb-06 06:59N 45°09' E 036°35'0 0.0
2018-Feb-06 06:27N 45°09' E 036°35'0 0.0
2018-Feb-06 05:51N 45°09' E 036°35'0 0.0
2018-Feb-06 05:29N 45°09' E 036°35'0 0.0
2018-Feb-06 01:29N 45°09' E 036°35'0 0.0
2018-Feb-05 10:20N 45°09' E 036°35'3 9.1
2018-Feb-05 10:00N 45°10' E 036°31'5 0.3
2018-Feb-04 17:46N 45°13' E 036°25'0 0.0
2018-Feb-04 15:30N 45°13' E 036°25'0 0.0
2018-Feb-04 15:01N 45°13' E 036°25'0 0.0
2018-Feb-04 14:28N 45°13' E 036°25'0 0.0
2018-Feb-04 13:51N 45°13' E 036°25'0 0.0
2018-Feb-04 13:26N 45°13' E 036°25'0 0.0
2018-Feb-04 12:59N 45°13' E 036°25'0 0.0
2018-Feb-04 12:30N 45°13' E 036°25'0 0.0
2018-Feb-04 11:59N 45°13' E 036°25'0 0.0
2018-Feb-04 11:30N 45°13' E 036°25'0 0.0
2018-Feb-04 10:00N 45°13' E 036°25'0 0.0
2018-Feb-04 09:00N 45°13' E 036°25'0 0.0
2018-Feb-04 08:30N 45°13' E 036°25'0 0.0
2018-Feb-04 07:59N 45°13' E 036°25'0 0.0
2018-Feb-04 07:30N 45°13' E 036°25'0 0.0
2018-Feb-04 07:00N 45°13' E 036°25'0 0.0
2018-Feb-04 06:27N 45°13' E 036°25'0 0.0
2018-Feb-04 06:00N 45°13' E 036°25'0 0.0
2018-Feb-04 05:31N 45°13' E 036°25'0 0.0
2018-Feb-04 04:56N 45°13' E 036°25'0 0.0
2018-Feb-04 04:31N 45°13' E 036°25'0 0.0
2018-Feb-04 04:00N 45°13' E 036°25'0 0.0
2018-Feb-04 03:28N 45°13' E 036°25'0 0.0
2018-Feb-04 02:58N 45°13' E 036°25'0 0.0
2018-Feb-04 02:18N 45°13' E 036°25'0 0.0
2018-Feb-04 01:57N 45°13' E 036°25'0 0.0
2018-Feb-04 01:27N 45°13' E 036°25'0 0.0
2018-Feb-04 00:55N 45°13' E 036°25'0 0.0
2018-Feb-04 00:30N 45°13' E 036°25'0 0.0
2018-Feb-03 23:26N 45°13' E 036°25'0 0.0
2018-Feb-03 22:58N 45°13' E 036°25'0 0.0
2018-Feb-03 22:30N 45°13' E 036°25'0 0.0
2018-Feb-03 21:51N 45°13' E 036°25'0 0.0
2018-Feb-03 21:29N 45°13' E 036°25'0 0.0
2018-Feb-03 20:50N 45°13' E 036°25'0 0.0
2018-Feb-03 18:24N 45°13' E 036°25'0 0.0
2018-Feb-03 18:00N 45°13' E 036°25'0 0.0
2018-Feb-03 17:22N 45°13' E 036°25'0 0.0
2018-Feb-03 16:30N 45°13' E 036°25'0 0.0
2018-Feb-03 16:00N 45°13' E 036°25'0 0.0
2018-Feb-03 14:41N 45°13' E 036°25'0 0.0
2018-Feb-03 14:27N 45°13' E 036°25'0 0.0
2018-Feb-03 13:59N 45°13' E 036°25'0 0.0
2018-Feb-03 13:27N 45°13' E 036°25'0 0.0
2018-Feb-03 13:00N 45°13' E 036°25'0 0.0
2018-Feb-03 12:21N 45°13' E 036°25'0 0.0
2018-Feb-03 12:00N 45°13' E 036°25'0 0.0
2018-Feb-03 11:31N 45°13' E 036°25'0 0.0
2018-Feb-03 10:58N 45°13' E 036°25'0 0.0
2018-Feb-03 10:29N 45°13' E 036°25'0 0.0
2018-Feb-03 09:58N 45°13' E 036°25'0 0.0
2018-Feb-03 09:30N 45°13' E 036°25'0 0.0
2018-Feb-03 09:00N 45°13' E 036°25'0 0.0
2018-Feb-03 08:27N 45°13' E 036°25'0 0.0
2018-Feb-03 07:58N 45°13' E 036°25'0 0.0
2018-Feb-03 06:06N 45°13' E 036°25'0 0.0
2018-Feb-03 05:57N 45°13' E 036°25'0 0.0
2018-Feb-03 05:25N 45°13' E 036°25'0 0.0
2018-Feb-03 04:59N 45°13' E 036°25'0 0.0
2018-Feb-03 01:22N 45°13' E 036°25'0 0.0
2018-Feb-03 00:58N 45°13' E 036°25'0 0.0
2018-Feb-03 00:30N 45°13' E 036°25'0 0.0
2018-Feb-02 23:58N 45°13' E 036°25'0 0.0
2018-Feb-02 23:25N 45°13' E 036°25'0 0.0
2018-Feb-02 23:00N 45°13' E 036°25'0 0.0
2018-Feb-02 21:11N 45°13' E 036°25'0 0.0
2018-Feb-02 20:51N 45°13' E 036°25'0 0.0
2018-Feb-02 20:15N 45°13' E 036°25'0 0.0
2018-Feb-02 19:57N 45°13' E 036°25'0 0.0
2018-Feb-02 18:05N 45°13' E 036°25'0 0.0
2018-Feb-02 17:59N 45°13' E 036°25'0 0.0
2018-Feb-02 17:27N 45°13' E 036°25'0 0.0
2018-Feb-02 17:00N 45°13' E 036°25'0 0.0
2018-Feb-02 15:30N 45°13' E 036°25'0 0.0
2018-Feb-02 14:22N 45°13' E 036°25'0 0.0
2018-Feb-02 13:26N 45°13' E 036°25'0 0.3
2018-Feb-02 13:00N 45°13' E 036°25'0 0.2
2018-Feb-02 12:27N 45°13' E 036°25'0 0.0
2018-Feb-02 11:59N 45°13' E 036°25'0 0.0
2018-Feb-02 11:31N 45°13' E 036°25'0 0.0
2018-Feb-02 10:58N 45°13' E 036°25'0 0.0
2018-Feb-02 10:28N 45°13' E 036°25'0 0.0
2018-Feb-02 09:59N 45°13' E 036°25'0 0.0
2018-Feb-02 09:28N 45°13' E 036°25'0 0.0
2018-Feb-02 08:59N 45°13' E 036°25'0 0.3
2018-Feb-02 08:18N 45°13' E 036°26'0 0.9
2018-Feb-02 08:00N 45°13' E 036°25'0 0.0
2018-Feb-02 07:29N 45°13' E 036°25'0 0.0
2018-Feb-02 06:59N 45°13' E 036°25'0 0.0
2018-Feb-02 06:30N 45°13' E 036°25'0 0.0
2018-Feb-02 06:00N 45°13' E 036°25'0 0.0
2018-Feb-02 05:30N 45°13' E 036°25'0 0.0
2018-Feb-02 04:59N 45°13' E 036°25'0 0.0
2018-Feb-02 04:30N 45°13' E 036°25'0 0.0
2018-Feb-02 04:00N 45°13' E 036°25'0 0.0
2018-Feb-02 03:30N 45°13' E 036°25'0 0.0
2018-Feb-02 03:00N 45°13' E 036°25'0 0.0
2018-Feb-02 02:30N 45°13' E 036°25'0 0.0
2018-Feb-02 02:00N 45°13' E 036°25'0 0.0
2018-Feb-02 01:25N 45°13' E 036°25'0 0.0
2018-Feb-02 00:56N 45°13' E 036°25'0 0.0
2018-Feb-02 00:29N 45°13' E 036°25'0 0.0
2018-Feb-02 00:00N 45°13' E 036°25'0 0.0
2018-Feb-01 23:28N 45°13' E 036°25'0 0.0
2018-Feb-01 21:58N 45°13' E 036°25'0 0.0
2018-Feb-01 21:24N 45°13' E 036°25'6 1.0
2018-Feb-01 15:32N 45°11' E 036°33'0 0.2
2018-Feb-01 15:30N 45°11' E 036°33'0 0.0
2018-Feb-01 15:00N 45°11' E 036°33'0 0.0
2018-Feb-01 13:24N 45°11' E 036°33'0 0.2
2018-Feb-01 12:59N 45°10' E 036°33'5 9.8
2018-Feb-01 12:30N 45°12' E 036°27'1 2.6
2018-Feb-01 11:56N 45°13' E 036°25'0 0.0
2018-Feb-01 10:53N 45°13' E 036°25'0 0.0
2018-Feb-01 10:30N 45°13' E 036°25'0 0.0
2018-Feb-01 10:00N 45°13' E 036°25'0 0.0
2018-Feb-01 09:29N 45°13' E 036°25'0 0.0
2018-Feb-01 09:00N 45°13' E 036°25'0 0.0
2018-Feb-01 08:26N 45°13' E 036°25'0 0.0
2018-Feb-01 07:26N 45°13' E 036°25'0 0.0
2018-Feb-01 07:00N 45°13' E 036°25'0 0.0
2018-Jan-31 07:28N 45°13' E 036°25'0 0.0
2018-Jan-31 06:55N 45°13' E 036°25'0 0.0
2018-Jan-31 06:25N 45°13' E 036°25'0 0.0
2018-Jan-31 06:00N 45°13' E 036°25'0 0.0
2018-Jan-31 05:30N 45°13' E 036°25'0 0.0
2018-Jan-31 02:09N 45°13' E 036°25'0 0.0
2018-Jan-30 23:54N 45°13' E 036°25'0 0.0
2018-Jan-30 16:44N 45°13' E 036°25'0 0.0
2018-Jan-30 16:28N 45°13' E 036°25'0 0.0
2018-Jan-30 15:59N 45°13' E 036°25'0 0.0
2018-Jan-30 15:23N 45°13' E 036°25'0 0.0
2018-Jan-30 14:57N 45°13' E 036°25'0 0.0
2018-Jan-30 14:23N 45°13' E 036°25'0 0.0
2018-Jan-30 13:23N 45°13' E 036°25'0 0.0
2018-Jan-30 12:52N 45°13' E 036°25'0 0.0
2018-Jan-30 12:29N 45°13' E 036°25'0 0.0
2018-Jan-30 12:00N 45°13' E 036°25'0 0.0
2018-Jan-30 11:28N 45°13' E 036°25'0 0.0
2018-Jan-30 10:30N 45°13' E 036°25'0 0.0
2018-Jan-30 09:30N 45°13' E 036°25'0 0.0
2018-Jan-30 08:46N 45°13' E 036°25'0 0.0
2018-Jan-30 08:27N 45°13' E 036°25'0 0.0
2018-Jan-30 07:57N 45°13' E 036°25'0 0.0
2018-Jan-30 07:30N 45°13' E 036°25'9 0.3
2018-Jan-28 21:53N 45°08' E 036°35'0 0.0
2018-Jan-28 14:52N 45°08' E 036°35'0 0.0
2018-Jan-28 14:30N 45°08' E 036°35'0 0.0
2018-Jan-28 13:54N 45°08' E 036°35'0 0.0
2018-Jan-28 13:27N 45°08' E 036°35'0 0.0
2018-Jan-28 06:20N 45°08' E 036°35'0 0.0
2018-Jan-28 05:51N 45°08' E 036°35'0 0.0
2018-Jan-28 02:24N 45°08' E 036°35'2 0.5
2018-Jan-27 22:46N 45°10' E 036°34'0 0.0
2018-Jan-27 22:24N 45°10' E 036°34'  

Dump ship's entire track history